Time;durP1;ratioP1;P1;durP2;ratioP2;P2;SDS_P1;SDS_P2;PMS_P1;PMS_P2;Temp;Humidity;BMP_temperature;BMP_pressure;BME280_temperature;BME280_humidity;BME280_pressure;Samples;Min_cycle;Max_cycle;Signal;HPM_P1;HPM_P2
2022/07/21 00:01:45;;;;;;;12.23;8.55;;;24.20;70.30;;;;;;5014914;28;20033;-65
2022/07/21 00:04:11;;;;;;;12.18;8.40;;;24.20;70.50;;;;;;5017382;28;20038;-65
2022/07/21 00:06:37;;;;;;;11.88;8.50;;;24.20;70.50;;;;;;5016492;28;20116;-65
2022/07/21 00:09:02;;;;;;;9.90;7.80;;;24.10;70.40;;;;;;5016577;28;20418;-68
2022/07/21 00:11:28;;;;;;;10.73;7.60;;;24.10;70.30;;;;;;5016888;28;20022;-65
2022/07/21 00:13:54;;;;;;;10.38;7.15;;;24.10;70.30;;;;;;5017551;28;20120;-65
2022/07/21 00:16:19;;;;;;;10.45;7.15;;;24.10;70.30;;;;;;5013931;28;20109;-64
2022/07/21 00:18:45;;;;;;;11.95;7.80;;;24.10;70.40;;;;;;5018732;28;20029;-65
2022/07/21 00:21:11;;;;;;;11.48;7.82;;;24.10;70.40;;;;;;5017544;28;20435;-65
2022/07/21 00:23:36;;;;;;;10.07;7.57;;;24.10;70.50;;;;;;5016745;28;20454;-65
2022/07/21 00:26:02;;;;;;;9.48;7.20;;;24.00;70.60;;;;;;5031771;28;20030;-65
2022/07/21 00:28:28;;;;;;;10.00;7.53;;;24.00;70.60;;;;;;5016215;28;20030;-64
2022/07/21 00:30:54;;;;;;;10.02;7.28;;;24.00;70.70;;;;;;5031798;28;20045;-65
2022/07/21 00:33:19;;;;;;;10.38;7.93;;;24.00;70.80;;;;;;5017817;28;20478;-65
2022/07/21 00:35:45;;;;;;;13.75;9.07;;;24.00;70.80;;;;;;5016970;28;20177;-65
2022/07/21 00:38:11;;;;;;;11.40;8.43;;;24.00;71.00;;;;;;5015483;28;20018;-65
2022/07/21 00:40:36;;;;;;;13.10;9.52;;;24.00;71.10;;;;;;5016136;28;20034;-65
2022/07/21 00:43:02;;;;;;;11.52;8.95;;;24.00;71.10;;;;;;5016383;28;20018;-65
2022/07/21 00:45:28;;;;;;;11.45;8.73;;;24.00;71.20;;;;;;5015291;28;20498;-65
2022/07/21 00:47:53;;;;;;;13.93;9.90;;;23.90;71.20;;;;;;5012037;28;20426;-65
2022/07/21 00:50:20;;;;;;;13.00;9.50;;;24.00;71.30;;;;;;5016907;28;20026;-65
2022/07/21 00:52:47;;;;;;;12.13;9.73;;;23.90;71.20;;;;;;5015428;28;20061;-65
2022/07/21 00:55:17;;;;;;;13.40;10.27;;;23.90;71.30;;;;;;5016096;28;20030;-65
2022/07/21 00:57:45;;;;;;;12.55;9.93;;;23.90;71.40;;;;;;5014923;28;20045;-65
2022/07/21 01:00:18;;;;;;;13.00;10.15;;;23.90;71.40;;;;;;5016704;28;20332;-65
2022/07/21 01:02:44;;;;;;;12.73;9.45;;;23.90;71.50;;;;;;5016107;28;20033;-65
2022/07/21 01:05:14;;;;;;;12.48;9.15;;;23.90;71.40;;;;;;5012690;28;20042;-65
2022/07/21 01:07:45;;;;;;;13.63;10.07;;;23.90;71.20;;;;;;5015709;28;20030;-65
2022/07/21 01:10:12;;;;;;;14.50;9.90;;;23.90;71.30;;;;;;5021048;28;20033;-65
2022/07/21 01:12:38;;;;;;;12.10;9.10;;;23.80;71.20;;;;;;5028123;28;20034;-65
2022/07/21 01:15:05;;;;;;;12.90;9.73;;;23.80;71.20;;;;;;5026168;28;20041;-64
2022/07/21 01:17:31;;;;;;;13.43;9.93;;;23.80;71.30;;;;;;5029530;28;20033;-65
2022/07/21 01:19:57;;;;;;;12.25;9.45;;;23.80;71.40;;;;;;5023806;28;20029;-65
2022/07/21 01:22:23;;;;;;;13.18;9.60;;;23.80;71.30;;;;;;5016561;28;20130;-65
2022/07/21 01:24:48;;;;;;;12.75;9.63;;;23.80;71.30;;;;;;5026186;28;20049;-65
2022/07/21 01:27:14;;;;;;;12.68;8.90;;;23.70;71.20;;;;;;5032237;28;20089;-65
2022/07/21 01:29:39;;;;;;;14.60;9.13;;;23.70;71.30;;;;;;5023599;28;20107;-65
2022/07/21 01:32:05;;;;;;;11.70;8.20;;;23.70;71.30;;;;;;5035264;28;20095;-65
2022/07/21 01:34:31;;;;;;;13.40;9.18;;;23.70;71.30;;;;;;5021090;28;20052;-65
2022/07/21 01:36:57;;;;;;;12.60;9.20;;;23.70;71.30;;;;;;5015042;28;20018;-65
2022/07/21 01:42:06;;;;;;;12.27;8.80;;;23.70;71.40;;;;;;5013537;28;20029;-65
2022/07/21 01:44:32;;;;;;;10.88;8.85;;;23.60;71.20;;;;;;5014065;28;20358;-65
2022/07/21 01:46:58;;;;;;;11.63;8.35;;;23.60;71.30;;;;;;5025195;28;20060;-65
2022/07/21 01:49:23;;;;;;;11.20;9.23;;;23.60;71.30;;;;;;5016960;28;20182;-65
2022/07/21 01:51:50;;;;;;;11.65;9.05;;;23.50;71.20;;;;;;5019300;28;20481;-65
2022/07/21 01:54:17;;;;;;;11.40;9.40;;;23.50;71.30;;;;;;5020692;28;20349;-65
2022/07/21 01:56:42;;;;;;;11.38;8.48;;;23.50;71.40;;;;;;5029873;28;20328;-65
2022/07/21 01:59:08;;;;;;;11.57;8.68;;;23.50;71.30;;;;;;5015969;28;20033;-65
2022/07/21 02:01:34;;;;;;;10.95;9.18;;;23.50;71.30;;;;;;5015288;28;20034;-65
2022/07/21 02:04:02;;;;;;;12.40;8.82;;;23.50;71.40;;;;;;5022766;28;20025;-65
2022/07/21 02:06:28;;;;;;;12.10;9.30;;;23.50;71.50;;;;;;5027566;28;20028;-65
2022/07/21 02:08:54;;;;;;;12.57;10.30;;;23.50;71.50;;;;;;5014994;28;20040;-65
2022/07/21 02:11:20;;;;;;;13.48;10.27;;;23.50;71.60;;;;;;5015275;28;20355;-65
2022/07/21 02:13:47;;;;;;;13.98;11.05;;;23.50;71.60;;;;;;5014699;28;20183;-65
2022/07/21 02:16:12;;;;;;;13.60;10.23;;;23.40;71.50;;;;;;5014667;28;20045;-65
2022/07/21 02:18:38;;;;;;;12.63;10.25;;;23.40;71.50;;;;;;5014336;28;20030;-65
2022/07/21 02:21:05;;;;;;;13.57;10.02;;;23.40;71.50;;;;;;5014408;28;20029;-65
2022/07/21 02:23:32;;;;;;;13.55;9.93;;;23.40;71.60;;;;;;5014465;28;20045;-65
2022/07/21 02:25:58;;;;;;;14.85;10.90;;;23.40;71.60;;;;;;5014528;28;20034;-65
2022/07/21 02:28:24;;;;;;;14.85;11.55;;;23.40;71.60;;;;;;5008114;28;20037;-65
2022/07/21 02:30:50;;;;;;;15.45;11.43;;;23.40;71.60;;;;;;5014106;28;20084;-65
2022/07/21 02:33:17;;;;;;;14.23;11.10;;;23.30;71.70;;;;;;5014534;28;20038;-65
2022/07/21 02:35:44;;;;;;;13.38;10.98;;;23.30;71.80;;;;;;5013689;28;20030;-65
2022/07/21 02:38:10;;;;;;;14.95;11.40;;;23.30;71.80;;;;;;5013901;28;20022;-65
2022/07/21 02:40:36;;;;;;;15.23;11.02;;;23.20;71.80;;;;;;5014247;28;20061;-65
2022/07/21 02:43:03;;;;;;;13.68;11.48;;;23.30;72.00;;;;;;5014403;28;20514;-65
2022/07/21 02:45:28;;;;;;;14.65;11.70;;;23.20;71.90;;;;;;5012698;28;20038;-65
2022/07/21 02:47:58;;;;;;;13.88;11.55;;;23.20;71.90;;;;;;5014165;28;20068;-65
2022/07/21 02:50:30;;;;;;;13.80;11.38;;;23.30;71.90;;;;;;5013738;28;20021;-65
2022/07/21 02:52:57;;;;;;;15.95;11.95;;;23.30;71.80;;;;;;5014642;28;20426;-65
2022/07/21 02:55:24;;;;;;;14.00;11.75;;;23.20;71.90;;;;;;5013709;28;20030;-65
2022/07/21 02:58:01;;;;;;;14.68;12.38;;;23.30;72.00;;;;;;5014737;28;20026;-65
2022/07/21 03:00:27;;;;;;;15.88;11.57;;;23.20;71.90;;;;;;5011600;28;20038;-65
2022/07/21 03:02:53;;;;;;;15.55;11.65;;;23.20;72.00;;;;;;5012035;28;20380;-65
2022/07/21 03:05:18;;;;;;;15.30;11.52;;;23.20;72.00;;;;;;5013679;28;20095;-65
2022/07/21 03:07:44;;;;;;;14.25;11.30;;;23.20;71.90;;;;;;5014816;28;20030;-65
2022/07/21 03:10:09;;;;;;;15.73;13.10;;;23.20;71.80;;;;;;5012657;28;20427;-65
2022/07/21 03:12:35;;;;;;;15.48;12.63;;;23.20;71.80;;;;;;5014206;28;20040;-65
2022/07/21 03:15:01;;;;;;;14.57;12.20;;;23.20;71.60;;;;;;5008271;28;20037;-65
2022/07/21 03:17:26;;;;;;;14.75;12.38;;;23.20;71.50;;;;;;5013623;28;20106;-65
2022/07/21 03:19:52;;;;;;;13.63;11.93;;;23.20;71.60;;;;;;5013409;28;20032;-65
2022/07/21 03:22:17;;;;;;;15.48;12.43;;;23.20;71.60;;;;;;5014453;28;20462;-65
2022/07/21 03:24:43;;;;;;;15.85;13.18;;;23.20;71.60;;;;;;5014004;28;20462;-65
2022/07/21 03:27:09;;;;;;;15.18;12.80;;;23.20;71.70;;;;;;5014485;28;20030;-65
2022/07/21 03:29:34;;;;;;;16.13;12.50;;;23.20;71.80;;;;;;5016199;28;20112;-65
2022/07/21 03:32:00;;;;;;;17.42;12.65;;;23.20;71.70;;;;;;5018583;28;20029;-65
2022/07/21 03:34:25;;;;;;;13.77;11.90;;;23.20;71.60;;;;;;5017359;28;20030;-65
2022/07/21 03:36:51;;;;;;;15.85;12.27;;;23.20;71.50;;;;;;5005371;28;20079;-65
2022/07/21 03:39:16;;;;;;;13.80;12.30;;;23.20;71.50;;;;;;5014002;28;20030;-65
2022/07/21 03:41:42;;;;;;;14.18;12.23;;;23.10;71.50;;;;;;5012620;28;20030;-65
2022/07/21 03:44:08;;;;;;;15.82;12.55;;;23.10;71.50;;;;;;5015608;28;20049;-65
2022/07/21 03:46:33;;;;;;;15.20;12.00;;;23.10;71.40;;;;;;5006065;28;20045;-65
2022/07/21 03:48:59;;;;;;;14.32;11.93;;;23.10;71.30;;;;;;5014379;28;20125;-65
2022/07/21 03:51:24;;;;;;;14.68;11.93;;;23.00;71.30;;;;;;5011676;28;20084;-65
2022/07/21 03:53:50;;;;;;;15.00;11.98;;;23.00;71.30;;;;;;5011850;28;20344;-65
2022/07/21 03:56:16;;;;;;;15.77;12.27;;;23.00;71.40;;;;;;5012659;28;20105;-65
2022/07/21 03:58:41;;;;;;;15.82;11.90;;;23.10;71.50;;;;;;5011863;28;20428;-65
2022/07/21 04:01:07;;;;;;;13.75;11.48;;;23.00;71.40;;;;;;5012468;28;20033;-65
2022/07/21 04:03:35;;;;;;;15.68;11.02;;;23.00;71.50;;;;;;5008286;28;20017;-65
2022/07/21 04:06:00;;;;;;;13.02;10.98;;;23.10;71.50;;;;;;5015059;28;20033;-65
2022/07/21 04:08:26;;;;;;;14.07;11.45;;;23.10;71.50;;;;;;5012986;28;20026;-65
2022/07/21 04:10:52;;;;;;;15.10;12.15;;;23.10;71.50;;;;;;5013623;28;20026;-65
2022/07/21 04:13:18;;;;;;;15.50;12.52;;;23.10;71.50;;;;;;5013654;28;20075;-65
2022/07/21 04:15:43;;;;;;;16.10;12.82;;;23.00;71.50;;;;;;5022803;28;20021;-65
2022/07/21 04:18:09;;;;;;;16.35;13.13;;;23.00;71.60;;;;;;5023763;28;20244;-65
2022/07/21 04:20:35;;;;;;;15.23;12.50;;;23.00;71.60;;;;;;5018934;28;20415;-65
2022/07/21 04:23:01;;;;;;;16.45;13.45;;;23.00;71.70;;;;;;5019028;28;20037;-65
2022/07/21 04:25:27;;;;;;;16.27;12.88;;;23.00;71.80;;;;;;5025371;28;20033;-65
2022/07/21 04:27:53;;;;;;;15.90;13.35;;;23.00;71.80;;;;;;5034743;28;20041;-65
2022/07/21 04:30:21;;;;;;;15.05;12.60;;;23.00;71.60;;;;;;5019633;28;20038;-66
2022/07/21 04:32:47;;;;;;;18.30;13.15;;;23.00;71.60;;;;;;5025355;28;20469;-64
2022/07/21 04:35:13;;;;;;;15.63;13.10;;;23.00;71.60;;;;;;5022889;28;20049;-65
2022/07/21 04:37:39;;;;;;;16.25;13.75;;;23.00;71.50;;;;;;5011636;28;20117;-64
2022/07/21 04:40:07;;;;;;;16.95;12.85;;;23.00;71.50;;;;;;5017811;28;20120;-65
2022/07/21 04:42:34;;;;;;;16.67;12.85;;;23.00;71.50;;;;;;5017013;28;20112;-64
2022/07/21 04:45:00;;;;;;;16.63;14.05;;;23.00;71.40;;;;;;5034238;28;20033;-64
2022/07/21 04:47:26;;;;;;;18.30;13.30;;;22.90;71.50;;;;;;5029778;28;20036;-64
2022/07/21 04:49:51;;;;;;;19.73;14.50;;;22.90;71.60;;;;;;5029319;28;20025;-64
2022/07/21 04:52:17;;;;;;;15.90;12.98;;;22.90;71.70;;;;;;5024338;28;20054;-65
2022/07/21 04:54:43;;;;;;;16.55;14.38;;;22.90;71.70;;;;;;5019547;28;20107;-65
2022/07/21 04:57:08;;;;;;;18.17;15.05;;;22.90;71.80;;;;;;5029851;28;20033;-64
2022/07/21 04:59:35;;;;;;;16.98;14.35;;;22.90;72.00;;;;;;5023261;28;20042;-64
2022/07/21 05:02:01;;;;;;;17.77;14.18;;;22.90;72.10;;;;;;5029788;28;20041;-64
2022/07/21 05:04:27;;;;;;;17.55;14.27;;;22.90;72.10;;;;;;5024381;28;20034;-64
2022/07/21 05:06:53;;;;;;;17.55;15.18;;;22.90;72.10;;;;;;5014427;28;20117;-64
2022/07/21 05:09:20;;;;;;;18.02;14.63;;;22.90;72.10;;;;;;5014998;28;20033;-64
2022/07/21 05:11:45;;;;;;;19.63;16.35;;;22.90;72.20;;;;;;5014718;28;20034;-64
2022/07/21 05:14:11;;;;;;;18.48;15.25;;;22.90;72.20;;;;;;5021531;28;20037;-64
2022/07/21 05:16:36;;;;;;;21.45;16.05;;;22.90;72.50;;;;;;5020286;28;20037;-64
2022/07/21 05:19:02;;;;;;;20.25;16.05;;;22.90;72.30;;;;;;5031329;28;20017;-64
2022/07/21 05:21:28;;;;;;;20.92;16.40;;;22.80;72.40;;;;;;5028143;28;20041;-64
2022/07/21 05:23:54;;;;;;;19.70;15.98;;;22.90;72.60;;;;;;5031208;28;20037;-65
2022/07/21 05:26:19;;;;;;;19.77;15.90;;;22.90;72.30;;;;;;5028388;28;20029;-64
2022/07/21 05:28:45;;;;;;;19.30;16.60;;;22.80;72.30;;;;;;5013081;28;20451;-65
2022/07/21 05:31:11;;;;;;;19.58;16.73;;;22.80;72.40;;;;;;5015824;28;20025;-66
2022/07/21 05:33:36;;;;;;;18.35;15.70;;;22.90;72.60;;;;;;5015683;28;20096;-65
2022/07/21 05:36:03;;;;;;;20.67;17.30;;;22.90;72.70;;;;;;5014782;28;20112;-66
2022/07/21 05:38:30;;;;;;;22.38;16.88;;;22.80;72.80;;;;;;5018173;28;20041;-65
2022/07/21 05:40:55;;;;;;;19.63;17.42;;;22.80;72.90;;;;;;5014603;28;20510;-65
2022/07/21 05:43:21;;;;;;;21.40;17.80;;;22.80;72.90;;;;;;5013045;28;20124;-65
2022/07/21 05:45:47;;;;;;;23.60;19.05;;;22.80;72.90;;;;;;5015392;28;20132;-65
2022/07/21 05:48:14;;;;;;;22.35;18.38;;;22.80;72.90;;;;;;5014012;28;20448;-65
2022/07/21 05:50:39;;;;;;;20.20;16.83;;;22.80;72.90;;;;;;5018780;28;20053;-65
2022/07/21 05:53:05;;;;;;;22.15;18.25;;;22.80;73.00;;;;;;5014423;28;20033;-64
2022/07/21 05:55:31;;;;;;;24.75;19.40;;;22.90;72.90;;;;;;5016229;28;20372;-64
2022/07/21 05:57:56;;;;;;;21.90;19.15;;;22.80;72.90;;;;;;5016077;28;20068;-65
2022/07/21 06:00:22;;;;;;;23.60;19.27;;;22.80;72.80;;;;;;5013286;28;20084;-65
2022/07/21 06:02:47;;;;;;;24.05;20.27;;;22.80;72.60;;;;;;5014324;28;20447;-65
2022/07/21 06:05:13;;;;;;;23.00;19.88;;;22.80;72.50;;;;;;5015221;28;20068;-65
2022/07/21 06:07:40;;;;;;;24.00;19.80;;;22.80;72.50;;;;;;5014287;28;20472;-64
2022/07/21 06:10:06;;;;;;;21.90;19.00;;;22.80;72.50;;;;;;5015897;28;20041;-64
2022/07/21 06:12:32;;;;;;;23.30;19.70;;;22.80;72.40;;;;;;5013293;28;20072;-66
2022/07/21 06:14:58;;;;;;;21.48;17.90;;;22.80;72.30;;;;;;5012285;28;20049;-64
2022/07/21 06:17:24;;;;;;;22.00;18.80;;;22.80;72.20;;;;;;5018992;28;20509;-65
2022/07/21 06:19:50;;;;;;;19.58;17.45;;;22.80;72.30;;;;;;5026698;28;20045;-65
2022/07/21 06:22:15;;;;;;;19.33;16.98;;;22.70;72.30;;;;;;5021128;28;20069;-65
2022/07/21 06:24:41;;;;;;;20.98;17.75;;;22.80;72.40;;;;;;5021080;28;20033;-65
2022/07/21 06:27:07;;;;;;;21.02;17.25;;;22.80;72.40;;;;;;5015559;28;20041;-66
2022/07/21 06:29:33;;;;;;;21.27;17.80;;;22.70;72.30;;;;;;5018393;28;20080;-66
2022/07/21 06:31:59;;;;;;;18.95;15.95;;;22.70;72.30;;;;;;5021182;28;20026;-65
2022/07/21 06:34:24;;;;;;;22.90;18.05;;;22.70;72.40;;;;;;5029070;28;20030;-66
2022/07/21 06:36:50;;;;;;;20.05;16.75;;;22.70;72.30;;;;;;5017382;28;20026;-66
2022/07/21 06:39:15;;;;;;;20.38;15.52;;;22.80;72.10;;;;;;5016258;28;20022;-66
2022/07/21 06:41:41;;;;;;;18.92;16.40;;;22.80;72.00;;;;;;5017667;28;20160;-65
2022/07/21 06:44:12;;;;;;;19.10;16.77;;;22.90;71.80;;;;;;5019583;28;20367;-64
2022/07/21 06:46:37;;;;;;;20.55;15.85;;;23.00;71.60;;;;;;5020600;28;20032;-64
2022/07/21 06:49:03;;;;;;;20.52;16.13;;;23.10;71.20;;;;;;5020180;28;20068;-64
2022/07/21 06:51:29;;;;;;;17.73;14.27;;;23.20;70.90;;;;;;5012866;28;20103;-65
2022/07/21 06:53:55;;;;;;;20.52;16.23;;;23.30;70.60;;;;;;5015277;28;20053;-65
2022/07/21 06:56:20;;;;;;;19.13;16.02;;;23.40;70.40;;;;;;5012037;28;20373;-65
2022/07/21 06:58:47;;;;;;;22.95;17.35;;;23.50;70.10;;;;;;5027893;28;20032;-65
2022/07/21 07:01:16;;;;;;;20.05;17.33;;;23.50;69.80;;;;;;5011484;28;20045;-65
2022/07/21 07:03:42;;;;;;;20.08;16.38;;;23.60;69.70;;;;;;5013934;28;20091;-65
2022/07/21 07:06:08;;;;;;;20.23;17.80;;;23.60;69.60;;;;;;5015099;28;20030;-65
2022/07/21 07:08:34;;;;;;;23.10;19.77;;;23.70;69.40;;;;;;5013501;28;20030;-65
2022/07/21 07:10:59;;;;;;;21.55;18.50;;;23.70;69.20;;;;;;5010101;28;20108;-65
2022/07/21 07:13:25;;;;;;;22.05;18.73;;;23.70;69.20;;;;;;5012603;28;20046;-65
2022/07/21 07:15:51;;;;;;;22.30;18.50;;;23.60;69.20;;;;;;5037497;28;20029;-65
2022/07/21 07:18:17;;;;;;;23.42;18.65;;;23.60;69.20;;;;;;5034038;28;20033;-65
2022/07/21 07:20:42;;;;;;;22.90;19.30;;;23.60;69.30;;;;;;5027806;28;20021;-65
2022/07/21 07:23:08;;;;;;;20.95;18.00;;;23.50;69.30;;;;;;5015823;28;20033;-66
2022/07/21 07:25:33;;;;;;;21.20;17.48;;;23.50;70.00;;;;;;5013518;28;20041;-65
2022/07/21 07:28:00;;;;;;;20.88;18.40;;;23.50;69.60;;;;;;5014344;28;20083;-65
2022/07/21 07:30:26;;;;;;;24.65;17.60;;;23.50;69.60;;;;;;5013032;28;20073;-66
2022/07/21 07:32:51;;;;;;;20.80;18.25;;;23.50;69.50;;;;;;5014106;28;20119;-65
2022/07/21 07:35:17;;;;;;;21.20;17.40;;;23.50;69.40;;;;;;5014625;28;20025;-65
2022/07/21 07:37:45;;;;;;;23.10;16.63;;;23.40;69.20;;;;;;5013454;28;20033;-65
2022/07/21 07:40:14;;;;;;;22.33;17.58;;;23.40;69.00;;;;;;5012009;28;20041;-65
2022/07/21 07:42:40;;;;;;;18.70;15.38;;;23.40;68.90;;;;;;5013133;28;20033;-65
2022/07/21 07:45:07;;;;;;;20.23;16.73;;;23.30;68.80;;;;;;5014382;28;20030;-65
2022/07/21 07:47:33;;;;;;;20.33;16.05;;;23.30;69.00;;;;;;5000539;28;20042;-66
2022/07/21 07:49:59;;;;;;;21.05;16.88;;;23.30;69.20;;;;;;5013061;28;20037;-65
2022/07/21 07:52:25;;;;;;;22.20;16.52;;;23.30;69.20;;;;;;5011992;28;20039;-65
2022/07/21 07:54:50;;;;;;;21.70;16.52;;;23.30;69.20;;;;;;5011464;28;20040;-65
2022/07/21 07:57:16;;;;;;;19.88;15.75;;;23.30;69.10;;;;;;5014163;28;20021;-65
2022/07/21 07:59:42;;;;;;;19.98;15.70;;;23.30;69.00;;;;;;5008218;28;20017;-65
2022/07/21 08:02:08;;;;;;;19.33;15.15;;;23.40;68.80;;;;;;5016948;28;20414;-65
2022/07/21 08:04:35;;;;;;;22.35;16.13;;;23.40;68.40;;;;;;5016242;28;20406;-65
2022/07/21 08:07:01;;;;;;;20.85;17.00;;;23.40;68.10;;;;;;5017557;28;20069;-65
2022/07/21 08:09:26;;;;;;;18.48;15.80;;;23.50;68.20;;;;;;5017984;28;20446;-65
2022/07/21 08:11:52;;;;;;;22.10;17.17;;;23.50;68.10;;;;;;5015463;28;20057;-66
2022/07/21 08:14:18;;;;;;;24.15;17.30;;;23.50;68.00;;;;;;5023641;28;20037;-66
2022/07/21 08:16:45;;;;;;;20.45;16.60;;;23.60;67.90;;;;;;5029095;28;20474;-66
2022/07/21 08:19:10;;;;;;;20.33;17.20;;;23.60;68.10;;;;;;5028087;28;20092;-65
2022/07/21 08:21:36;;;;;;;21.70;15.75;;;23.60;68.10;;;;;;5017405;28;20450;-65
2022/07/21 08:24:03;;;;;;;20.60;16.10;;;23.60;67.90;;;;;;5017257;28;20029;-66
2022/07/21 08:26:28;;;;;;;21.20;15.90;;;23.60;67.80;;;;;;5016473;28;20359;-66
2022/07/21 08:28:55;;;;;;;20.63;16.02;;;23.60;67.80;;;;;;5017288;28;20038;-65
2022/07/21 08:31:22;;;;;;;21.15;16.48;;;23.70;67.70;;;;;;5014089;28;20034;-65
2022/07/21 08:33:48;;;;;;;20.50;15.60;;;23.60;67.60;;;;;;5016906;28;20377;-64
2022/07/21 08:36:13;;;;;;;19.27;15.60;;;23.60;67.60;;;;;;5015284;28;20034;-66
2022/07/21 08:38:39;;;;;;;19.55;14.85;;;23.70;67.60;;;;;;5016845;28;20525;-64
2022/07/21 08:41:07;;;;;;;20.30;15.32;;;23.90;67.50;;;;;;5016331;28;20030;-65
2022/07/21 08:43:33;;;;;;;18.55;15.20;;;23.90;67.20;;;;;;5015597;28;20030;-65
2022/07/21 08:45:59;;;;;;;21.30;15.55;;;23.90;67.10;;;;;;5015842;28;20363;-65
2022/07/21 08:48:26;;;;;;;19.08;14.73;;;24.00;67.10;;;;;;5016938;28;20042;-66
2022/07/21 08:50:52;;;;;;;17.98;14.38;;;23.90;67.00;;;;;;5016945;28;20037;-66
2022/07/21 08:53:17;;;;;;;20.75;14.73;;;23.90;67.10;;;;;;5016933;28;20033;-65
2022/07/21 08:55:43;;;;;;;18.77;13.75;;;23.90;67.20;;;;;;5016643;28;20044;-65
2022/07/21 08:58:11;;;;;;;19.67;14.63;;;23.90;67.40;;;;;;5015775;28;20030;-65
2022/07/21 09:00:39;;;;;;;18.75;14.10;;;23.90;67.50;;;;;;5014716;28;20073;-66
2022/07/21 09:03:40;;;;;;;19.35;14.82;;;23.90;67.60;;;;;;5016606;28;20048;-65
2022/07/21 09:06:11;;;;;;;;;;;23.90;67.60;;;;;;4985456;28;20104;-66
2022/07/21 09:08:44;;;;;;;18.50;14.15;;;23.80;67.60;;;;;;4988110;28;20004;-66
2022/07/21 09:11:15;;;;;;;19.30;14.20;;;23.70;67.80;;;;;;4973029;28;20514;-65
2022/07/21 09:13:42;;;;;;;18.17;13.33;;;23.70;68.00;;;;;;4988139;28;20162;-67
2022/07/21 09:16:08;;;;;;;18.58;13.80;;;23.60;68.10;;;;;;4997992;28;20281;-67
2022/07/21 09:18:46;;;;;;;18.35;14.30;;;23.60;68.20;;;;;;4997271;28;20073;-65
2022/07/21 09:21:11;;;;;;;18.27;14.60;;;23.50;68.30;;;;;;4992236;28;20046;-65
2022/07/21 09:23:37;;;;;;;21.08;14.57;;;23.50;68.50;;;;;;4979663;28;20085;-65
2022/07/21 09:26:03;;;;;;;17.23;14.07;;;23.50;68.80;;;;;;4995129;28;20061;-66
2022/07/21 09:28:30;;;;;;;19.27;13.18;;;23.40;69.00;;;;;;4984524;28;20097;-65
2022/07/21 09:31:08;;;;;;;16.48;12.15;;;23.40;69.20;;;;;;4993964;28;20037;-66
2022/07/21 09:33:39;;;;;;;14.32;10.30;;;23.40;69.40;;;;;;4979027;28;20053;-65
2022/07/21 09:36:14;;;;;;;12.27;9.60;;;23.40;69.50;;;;;;4992102;28;20030;-66
2022/07/21 09:38:41;;;;;;;13.80;8.45;;;23.30;69.60;;;;;;4976985;28;20065;-66
2022/07/21 09:41:16;;;;;;;14.82;8.57;;;23.30;70.00;;;;;;5014674;28;20108;-66
2022/07/21 09:43:50;;;;;;;15.25;7.80;;;23.30;70.30;;;;;;5011373;28;20383;-66
2022/07/21 09:46:26;;;;;;;13.73;7.45;;;23.20;70.60;;;;;;5015166;28;20470;-65
2022/07/21 09:48:54;;;;;;;11.45;6.93;;;23.20;71.10;;;;;;5015621;28;20065;-65
2022/07/21 09:51:30;;;;;;;18.17;8.43;;;23.20;71.40;;;;;;5015021;28;20109;-65
2022/07/21 09:54:04;;;;;;;12.38;7.35;;;23.20;71.80;;;;;;5015134;28;20029;-66
2022/07/21 09:56:35;;;;;;;10.85;6.47;;;23.10;72.00;;;;;;5014285;28;20037;-64
2022/07/21 09:59:02;;;;;;;;;;;23.10;72.20;;;;;;5014692;28;20030;-65
2022/07/21 10:01:29;;;;;;;9.00;5.68;;;23.10;72.10;;;;;;5016447;28;20418;-65
2022/07/21 10:03:56;;;;;;;8.43;5.30;;;23.00;72.40;;;;;;5013269;28;20120;-64
2022/07/21 10:06:31;;;;;;;9.00;5.38;;;22.90;72.60;;;;;;5013151;28;20076;-65
2022/07/21 10:08:58;;;;;;;9.00;5.68;;;22.90;73.60;;;;;;5015887;28;20133;-64
2022/07/21 10:11:26;;;;;;;12.05;5.95;;;22.90;73.10;;;;;;5009569;28;20034;-65
2022/07/21 10:13:52;;;;;;;8.68;4.90;;;22.90;73.30;;;;;;5013373;28;20124;-65
2022/07/21 10:16:18;;;;;;;8.13;4.43;;;22.90;73.50;;;;;;5013770;28;20117;-65
2022/07/21 10:19:01;;;;;;;8.18;5.30;;;22.90;73.60;;;;;;5006351;28;20034;-65
2022/07/21 10:21:40;;;;;;;7.47;4.63;;;22.90;73.80;;;;;;5011510;28;20038;-65
2022/07/21 10:24:11;;;;;;;8.15;4.78;;;22.90;73.80;;;;;;5008649;28;20041;-65
2022/07/21 10:26:37;;;;;;;8.55;4.68;;;22.90;73.90;;;;;;5010153;28;20092;-65
2022/07/21 10:29:03;;;;;;;9.32;4.57;;;22.90;73.90;;;;;;5010165;28;20470;-66
2022/07/21 10:31:29;;;;;;;8.85;4.40;;;22.90;73.90;;;;;;5001783;28;20038;-66
2022/07/21 10:34:00;;;;;;;7.75;4.32;;;22.90;74.10;;;;;;5002039;28;20061;-66
2022/07/21 10:36:26;;;;;;;9.68;4.57;;;22.90;74.20;;;;;;5012671;28;20056;-66
2022/07/21 10:39:22;;;;;;;8.15;4.63;;;22.90;74.30;;;;;;5012880;28;20026;-65
2022/07/21 10:41:57;;;;;;;7.20;4.15;;;22.80;74.50;;;;;;5015071;28;20033;-65
2022/07/21 10:44:28;;;;;;;8.18;4.38;;;22.80;74.70;;;;;;5004590;28;20025;-64
2022/07/21 10:47:04;;;;;;;7.82;4.80;;;22.80;74.80;;;;;;5004118;28;20057;-64
2022/07/21 10:49:47;;;;;;;7.32;4.55;;;22.80;74.80;;;;;;5011206;28;20025;-64
2022/07/21 10:52:35;;;;;;;7.53;4.55;;;22.80;75.00;;;;;;5014244;28;20022;-64
2022/07/21 10:55:09;;;;;;;8.10;4.72;;;22.80;75.10;;;;;;5003784;28;20029;-64
2022/07/21 10:57:43;;;;;;;8.55;4.65;;;22.70;75.20;;;;;;5003891;28;20030;-64
2022/07/21 11:00:22;;;;;;;7.72;4.60;;;22.70;75.40;;;;;;5011921;28;20064;-63
2022/07/21 11:02:58;;;;;;;6.50;4.38;;;22.70;75.50;;;;;;5011695;28;20411;-63
2022/07/21 11:05:25;;;;;;;7.63;4.95;;;22.70;75.50;;;;;;5007777;28;20109;-64
2022/07/21 11:08:15;;;;;;;6.90;4.60;;;22.70;75.50;;;;;;5006329;28;20034;-64
2022/07/21 11:10:52;;;;;;;7.57;4.30;;;22.70;75.70;;;;;;5013592;28;20363;-66
2022/07/21 11:13:21;;;;;;;6.38;3.72;;;22.70;75.70;;;;;;5012696;28;20048;-65
2022/07/21 11:16:00;;;;;;;5.53;3.20;;;22.70;75.80;;;;;;5014646;28;20033;-65
2022/07/21 11:18:32;;;;;;;7.03;3.15;;;22.60;75.80;;;;;;5013919;28;20129;-65
2022/07/21 11:21:12;;;;;;;6.95;3.42;;;22.60;75.80;;;;;;5013166;28;20379;-65
2022/07/21 11:23:47;;;;;;;6.03;3.15;;;22.60;75.70;;;;;;5011649;28;20080;-64
2022/07/21 11:26:16;;;;;;;6.28;3.22;;;22.60;75.70;;;;;;5014080;28;20018;-66
2022/07/21 11:28:43;;;;;;;8.35;3.60;;;22.50;75.80;;;;;;5014996;28;20046;-65
2022/07/21 11:31:18;;;;;;;6.07;3.35;;;22.50;75.90;;;;;;5016506;28;20041;-65
2022/07/21 11:33:46;;;;;;;6.10;3.80;;;22.50;76.10;;;;;;5019235;28;20402;-65
2022/07/21 11:36:23;;;;;;;7.68;3.47;;;22.40;76.20;;;;;;5019408;28;20030;-65
2022/07/21 11:39:05;;;;;;;5.82;3.35;;;22.50;76.30;;;;;;5019339;28;20041;-65
2022/07/21 11:41:32;;;;;;;9.00;4.20;;;22.40;76.40;;;;;;5031988;28;20503;-65
2022/07/21 11:43:58;;;;;;;7.40;4.10;;;22.50;76.30;;;;;;5018280;28;20304;-66
2022/07/21 11:46:23;;;;;;;9.07;4.10;;;22.50;76.30;;;;;;5018062;28;20022;-66
2022/07/21 11:49:01;;;;;;;8.10;4.85;;;22.60;76.30;;;;;;5016229;28;20033;-65
2022/07/21 11:51:27;;;;;;;9.95;4.85;;;22.60;76.30;;;;;;5018116;28;20033;-65
2022/07/21 11:53:52;;;;;;;8.23;4.80;;;22.60;76.30;;;;;;5023819;28;20022;-65
2022/07/21 11:56:18;;;;;;;8.25;4.80;;;22.60;76.30;;;;;;5016330;28;20367;-65
2022/07/21 11:58:44;;;;;;;7.22;4.97;;;22.60;76.50;;;;;;5017522;28;20041;-65
2022/07/21 12:01:09;;;;;;;8.35;5.40;;;22.60;76.50;;;;;;5017198;28;20022;-65
2022/07/21 12:03:47;;;;;;;10.65;5.40;;;22.60;76.50;;;;;;5014216;28;20422;-65
2022/07/21 12:06:14;;;;;;;12.05;5.47;;;22.60;76.50;;;;;;5011133;28;20033;-65
2022/07/21 12:08:41;;;;;;;10.27;6.85;;;22.60;76.40;;;;;;5018033;28;20077;-65
2022/07/21 12:11:08;;;;;;;9.90;6.38;;;22.60;76.40;;;;;;5010509;28;20026;-65
2022/07/21 12:13:52;;;;;;;10.50;7.07;;;22.50;76.40;;;;;;5016772;28;20052;-65
2022/07/21 12:16:18;;;;;;;9.82;6.65;;;22.50;76.50;;;;;;5017056;28;20427;-65
2022/07/21 12:18:44;;;;;;;10.18;7.00;;;22.50;76.50;;;;;;5018061;28;20033;-65
2022/07/21 12:21:10;;;;;;;10.65;7.15;;;22.40;76.50;;;;;;5018182;28;20432;-65
2022/07/21 12:23:36;;;;;;;9.32;6.55;;;22.40;76.60;;;;;;5018075;28;20503;-64
2022/07/21 12:26:03;;;;;;;9.75;6.40;;;22.50;76.70;;;;;;5014489;28;20061;-65
2022/07/21 12:28:53;;;;;;;9.55;6.80;;;22.50;76.70;;;;;;5016777;28;20486;-65
2022/07/21 12:31:20;;;;;;;9.10;5.90;;;22.50;76.70;;;;;;5016319;28;20029;-65
2022/07/21 12:33:48;;;;;;;9.57;6.20;;;22.40;76.60;;;;;;5015515;28;20018;-65
2022/07/21 12:36:13;;;;;;;9.13;6.28;;;22.40;76.50;;;;;;5015090;28;20034;-65
2022/07/21 12:38:47;;;;;;;8.32;5.68;;;22.40;76.40;;;;;;5014524;28;20072;-65